Time;durP1;ratioP1;P1;durP2;ratioP2;P2;SDS_P1;SDS_P2;PMS_P1;PMS_P2;Temp;Humidity;BMP_temperature;BMP_pressure;BME280_temperature;BME280_humidity;BME280_pressure;Samples;Min_cycle;Max_cycle;Signal;HPM_P1;HPM_P2
2022/08/27 00:01:29;;;;;;;24.90;22.90;;;;;;;;;;5094294;28;20440;-82
2022/08/27 00:03:56;;;;;;;26.77;24.70;;;;;;;;;;5094195;28;20511;-82
2022/08/27 00:06:24;;;;;;;25.73;23.70;;;;;;;;;;5094154;28;20444;-82
2022/08/27 00:08:53;;;;;;;26.37;24.17;;;;;;;;;;5094073;28;21287;-82
2022/08/27 00:11:24;;;;;;;25.13;23.23;;;;;;;;;;5094274;28;20422;-83
2022/08/27 00:13:51;;;;;;;26.53;24.40;;;;;;;;;;5094093;28;20488;-83
2022/08/27 00:16:19;;;;;;;25.77;23.97;;;;;;;;;;5093823;28;20430;-82
2022/08/27 00:18:47;;;;;;;25.23;23.03;;;;;;;;;;5093971;28;20434;-83
2022/08/27 00:21:14;;;;;;;24.30;22.53;;;;;;;;;;5094129;28;20419;-83
2022/08/27 00:23:42;;;;;;;27.13;24.83;;;;;;;;;;5093710;28;20482;-83
2022/08/27 00:26:10;;;;;;;25.37;23.27;;;;;;;;;;5093962;28;20460;-82
2022/08/27 00:28:38;;;;;;;25.03;22.93;;;;;;;;;;5093950;28;20451;-82
2022/08/27 00:31:06;;;;;;;24.40;22.53;;;;;;;;;;5093718;28;20428;-83
2022/08/27 00:33:34;;;;;;;25.97;23.77;;;;;;;;;;5093586;28;20926;-83
2022/08/27 00:36:02;;;;;;;24.63;22.90;;;;;;;;;;5093558;28;20447;-82
2022/08/27 00:38:29;;;;;;;25.10;23.00;;;;;;;;;;5093336;28;20864;-82
2022/08/27 00:40:59;;;;;;;24.50;22.70;;;;;;;;;;5093787;28;20415;-83
2022/08/27 00:43:28;;;;;;;26.90;24.37;;;;;;;;;;5092848;28;20462;-82
2022/08/27 00:46:02;;;;;;;23.77;21.87;;;;;;;;;;5093570;28;20521;-83
2022/08/27 00:48:31;;;;;;;24.90;23.10;;;;;;;;;;5093586;28;20441;-82
2022/08/27 00:50:58;;;;;;;25.40;23.40;;;;;;;;;;5093606;28;20403;-82
2022/08/27 00:53:28;;;;;;;25.80;23.80;;;;;;;;;;5093597;28;20432;-82
2022/08/27 00:55:57;;;;;;;24.80;23.00;;;;;;;;;;5093307;28;20500;-82
2022/08/27 00:58:27;;;;;;;25.23;23.13;;;;;;;;;;5091842;28;20839;-83
2022/08/27 01:00:55;;;;;;;26.40;24.07;;;;;;;;;;5093426;28;20787;-82
2022/08/27 01:03:25;;;;;;;25.20;23.33;;;;;;;;;;5093098;28;20509;-83
2022/08/27 01:05:54;;;;;;;26.63;24.10;;;;;;;;;;5093064;28;20937;-83
2022/08/27 01:08:22;;;;;;;26.23;23.43;;;;;;;;;;5093014;28;20427;-82
2022/08/27 01:10:50;;;;;;;26.50;24.37;;;;;;;;;;5093354;28;20447;-82
2022/08/27 01:13:19;;;;;;;25.27;23.37;;;;;;;;;;5092949;28;20456;-83
2022/08/27 01:15:47;;;;;;;25.30;23.00;;;;;;;;;;5093024;28;20440;-83
2022/08/27 01:18:14;;;;;;;26.67;24.30;;;;;;;;;;5092960;28;20416;-82
2022/08/27 01:20:46;;;;;;;26.30;23.83;;;;;;;;;;5092892;28;20404;-83
2022/08/27 01:23:18;;;;;;;25.23;23.33;;;;;;;;;;5092795;28;21034;-82
2022/08/27 01:25:48;;;;;;;25.40;23.67;;;;;;;;;;5092842;28;20446;-83
2022/08/27 01:28:15;;;;;;;29.87;27.00;;;;;;;;;;5093024;28;20459;-82
2022/08/27 01:30:43;;;;;;;27.43;25.13;;;;;;;;;;5093052;28;20415;-83
2022/08/27 01:33:13;;;;;;;27.03;24.80;;;;;;;;;;5092737;28;20414;-82
2022/08/27 01:35:40;;;;;;;25.60;23.57;;;;;;;;;;5092618;28;20896;-82
2022/08/27 01:38:09;;;;;;;25.20;23.00;;;;;;;;;;5092607;28;20427;-83
2022/08/27 01:40:36;;;;;;;25.67;23.57;;;;;;;;;;5092903;28;20436;-82
2022/08/27 01:43:05;;;;;;;26.07;23.90;;;;;;;;;;5092849;28;20490;-82
2022/08/27 01:45:34;;;;;;;24.60;22.67;;;;;;;;;;5092758;28;20958;-82
2022/08/27 01:48:02;;;;;;;24.63;22.53;;;;;;;;;;5092495;28;20414;-83
2022/08/27 01:50:31;;;;;;;25.93;23.83;;;;;;;;;;5092630;28;20994;-82
2022/08/27 01:53:02;;;;;;;25.07;23.27;;;;;;;;;;5092884;28;20435;-83
2022/08/27 01:55:29;;;;;;;25.53;22.90;;;;;;;;;;5095584;28;20446;-83
2022/08/27 01:57:57;;;;;;;26.07;23.73;;;;;;;;;;5096729;28;20413;-82
2022/08/27 02:00:26;;;;;;;28.37;25.37;;;;;;;;;;5096485;28;20784;-82
2022/08/27 02:02:54;;;;;;;24.43;22.57;;;;;;;;;;5096605;28;20458;-83
2022/08/27 02:05:21;;;;;;;26.23;23.50;;;;;;;;;;5096216;28;20492;-83
2022/08/27 02:07:49;;;;;;;24.40;22.50;;;;;;;;;;5096688;28;20448;-82
2022/08/27 02:10:19;;;;;;;26.97;24.87;;;;;;;;;;5096330;28;20921;-83
2022/08/27 02:12:46;;;;;;;25.10;22.67;;;;;;;;;;5096328;28;20816;-82
2022/08/27 02:15:15;;;;;;;25.00;22.90;;;;;;;;;;5096660;28;20407;-83
2022/08/27 02:17:45;;;;;;;26.47;23.80;;;;;;;;;;5096524;28;20418;-82
2022/08/27 02:20:13;;;;;;;24.43;22.30;;;;;;;;;;5096359;28;20923;-83
2022/08/27 02:22:40;;;;;;;25.47;22.80;;;;;;;;;;5095959;28;20490;-81
2022/08/27 02:25:08;;;;;;;25.20;23.40;;;;;;;;;;5096236;28;20434;-82
2022/08/27 02:27:36;;;;;;;25.70;23.07;;;;;;;;;;5095975;28;20414;-82
2022/08/27 02:30:03;;;;;;;23.63;21.80;;;;;;;;;;5096257;28;20532;-82
2022/08/27 02:32:31;;;;;;;25.20;22.80;;;;;;;;;;5096165;28;20448;-82
2022/08/27 02:35:02;;;;;;;23.70;22.10;;;;;;;;;;5095939;28;20411;-83
2022/08/27 02:37:30;;;;;;;24.47;22.30;;;;;;;;;;5096029;28;20784;-82
2022/08/27 02:39:57;;;;;;;27.63;23.60;;;;;;;;;;5096093;28;20498;-83
2022/08/27 02:42:24;;;;;;;24.70;22.90;;;;;;;;;;5095993;28;20457;-83
2022/08/27 02:44:53;;;;;;;25.37;23.00;;;;;;;;;;5095695;28;20415;-83
2022/08/27 02:47:20;;;;;;;23.73;21.80;;;;;;;;;;5094464;28;20444;-82
2022/08/27 02:49:48;;;;;;;26.90;22.63;;;;;;;;;;5095898;28;20829;-82
2022/08/27 02:52:17;;;;;;;25.07;22.63;;;;;;;;;;5095897;28;20811;-83
2022/08/27 02:54:44;;;;;;;35.13;23.60;;;;;;;;;;5095428;28;20525;-83
2022/08/27 02:57:12;;;;;;;25.03;22.70;;;;;;;;;;5095621;27;20419;-82
2022/08/27 02:59:39;;;;;;;23.07;21.57;;;;;;;;;;5095720;28;20741;-82
2022/08/27 03:02:07;;;;;;;25.00;22.80;;;;;;;;;;5095426;28;20413;-83
2022/08/27 03:04:35;;;;;;;22.93;21.17;;;;;;;;;;5095136;28;20474;-83
2022/08/27 03:07:02;;;;;;;25.13;22.83;;;;;;;;;;5094293;28;20431;-83
2022/08/27 03:09:31;;;;;;;23.53;21.60;;;;;;;;;;5095567;28;20431;-82
2022/08/27 03:11:59;;;;;;;23.00;21.33;;;;;;;;;;5095407;28;20448;-83
2022/08/27 03:14:26;;;;;;;23.87;21.83;;;;;;;;;;5095182;28;20439;-83
2022/08/27 03:16:53;;;;;;;23.27;21.40;;;;;;;;;;5095356;28;20440;-82
2022/08/27 03:19:20;;;;;;;23.10;21.07;;;;;;;;;;5095281;28;20762;-82
2022/08/27 03:21:48;;;;;;;22.53;21.03;;;;;;;;;;5095028;28;20443;-83
2022/08/27 03:24:15;;;;;;;23.57;21.50;;;;;;;;;;5095224;28;20599;-83
2022/08/27 03:26:44;;;;;;;23.77;21.97;;;;;;;;;;5095039;28;20444;-83
2022/08/27 03:29:11;;;;;;;23.70;21.70;;;;;;;;;;5094806;28;20406;-83
2022/08/27 03:31:39;;;;;;;23.83;21.73;;;;;;;;;;5094754;28;20414;-83
2022/08/27 03:34:08;;;;;;;22.80;21.00;;;;;;;;;;5094986;28;20835;-82
2022/08/27 03:36:35;;;;;;;23.53;21.07;;;;;;;;;;5094645;28;20839;-82
2022/08/27 03:39:02;;;;;;;21.30;19.70;;;;;;;;;;5094955;28;20448;-81
2022/08/27 03:41:30;;;;;;;21.90;20.33;;;;;;;;;;5094455;28;20914;-82
2022/08/27 03:43:59;;;;;;;20.80;19.50;;;;;;;;;;5094776;28;20493;-82
2022/08/27 03:46:29;;;;;;;21.63;20.13;;;;;;;;;;5093263;28;20423;-83
2022/08/27 03:48:56;;;;;;;21.17;19.67;;;;;;;;;;5094894;28;20491;-83
2022/08/27 03:51:24;;;;;;;21.10;19.70;;;;;;;;;;5094776;28;20410;-83
2022/08/27 03:53:51;;;;;;;21.67;19.90;;;;;;;;;;5094706;28;20435;-83
2022/08/27 03:56:18;;;;;;;20.97;19.37;;;;;;;;;;5094429;28;20501;-82
2022/08/27 03:58:46;;;;;;;22.33;20.30;;;;;;;;;;5094245;28;20855;-83
2022/08/27 04:01:16;;;;;;;22.50;20.13;;;;;;;;;;5094099;28;20414;-82
2022/08/27 04:03:43;;;;;;;19.90;18.40;;;;;;;;;;5094076;28;20840;-83
2022/08/27 04:06:11;;;;;;;21.10;19.50;;;;;;;;;;5094081;28;20762;-82
2022/08/27 04:08:38;;;;;;;20.77;19.47;;;;;;;;;;5094445;28;20498;-83
2022/08/27 04:11:06;;;;;;;20.90;19.47;;;;;;;;;;5093935;28;20452;-83
2022/08/27 04:13:34;;;;;;;21.43;19.40;;;;;;;;;;5093945;28;20535;-82
2022/08/27 04:16:01;;;;;;;20.47;18.87;;;;;;;;;;5092660;28;20829;-83
2022/08/27 04:18:30;;;;;;;20.50;18.80;;;;;;;;;;5093697;28;20436;-83
2022/08/27 04:20:57;;;;;;;20.80;19.10;;;;;;;;;;5094185;28;20439;-83
2022/08/27 04:23:24;;;;;;;20.50;19.00;;;;;;;;;;5094017;28;20454;-83
2022/08/27 04:25:52;;;;;;;19.93;18.63;;;;;;;;;;5092312;28;20919;-83
2022/08/27 04:28:19;;;;;;;22.33;20.30;;;;;;;;;;5093940;28;20414;-83
2022/08/27 04:30:47;;;;;;;20.37;18.97;;;;;;;;;;5094000;28;20834;-82
2022/08/27 04:33:15;;;;;;;20.63;18.87;;;;;;;;;;5093915;28;20770;-82
2022/08/27 04:35:44;;;;;;;20.87;19.30;;;;;;;;;;5093564;28;20410;-82
2022/08/27 04:38:11;;;;;;;24.70;19.17;;;;;;;;;;5093740;28;20414;-82
2022/08/27 04:43:32;;;;;;;20.10;18.77;;;;;;;;;;5030977;28;20575;-83
2022/08/27 04:45:59;;;;;;;20.00;18.53;;;;;;;;;;5031071;28;20412;-83
2022/08/27 04:48:27;;;;;;;20.23;18.93;;;;;;;;;;5031287;28;20812;-83
2022/08/27 04:50:55;;;;;;;20.37;18.83;;;;;;;;;;5031008;28;20944;-82
2022/08/27 04:53:23;;;;;;;20.50;18.57;;;;;;;;;;5031012;28;20429;-82
2022/08/27 04:55:51;;;;;;;21.20;19.30;;;;;;;;;;5030649;28;20444;-82
2022/08/27 04:58:19;;;;;;;20.27;18.77;;;;;;;;;;5030900;28;21018;-83
2022/08/27 05:00:48;;;;;;;20.00;18.57;;;;;;;;;;5030685;28;20448;-83
2022/08/27 05:03:16;;;;;;;20.07;18.67;;;;;;;;;;5013971;28;20449;-82
2022/08/27 05:05:43;;;;;;;22.47;20.80;;;;;;;;;;5030848;28;20462;-83
2022/08/27 05:08:12;;;;;;;18.90;17.70;;;;;;;;;;5014057;28;20945;-82
2022/08/27 05:10:41;;;;;;;20.50;19.20;;;;;;;;;;5030717;28;20485;-82
2022/08/27 05:13:08;;;;;;;20.30;18.80;;;;;;;;;;5030585;28;20441;-82
2022/08/27 05:15:35;;;;;;;21.23;19.40;;;;;;;;;;5029789;28;20823;-84
2022/08/27 05:18:04;;;;;;;21.47;19.80;;;;;;;;;;5030549;28;20446;-83
2022/08/27 05:20:32;;;;;;;20.53;19.03;;;;;;;;;;5092668;28;20454;-84
2022/08/27 05:22:59;;;;;;;20.60;19.37;;;;;;;;;;5091887;28;20423;-83
2022/08/27 05:25:28;;;;;;;22.27;19.90;;;;;;;;;;5092912;28;20444;-84
2022/08/27 05:27:55;;;;;;;20.20;18.90;;;;;;;;;;5093335;28;20429;-85
2022/08/27 05:30:23;;;;;;;22.30;20.80;;;;;;;;;;5092892;28;20455;-85
2022/08/27 05:32:51;;;;;;;23.70;21.67;;;;;;;;;;5092349;28;20444;-83
2022/08/27 05:35:19;;;;;;;21.60;19.70;;;;;;;;;;5090407;28;20787;-83
2022/08/27 05:37:46;;;;;;;20.00;19.00;;;;;;;;;;5092977;28;20428;-83
2022/08/27 05:40:14;;;;;;;21.33;19.93;;;;;;;;;;5093611;28;20419;-85
2022/08/27 05:42:43;;;;;;;20.93;19.73;;;;;;;;;;5093054;28;20489;-82
2022/08/27 05:45:11;;;;;;;21.60;19.97;;;;;;;;;;5093020;28;20462;-82
2022/08/27 05:47:39;;;;;;;21.07;19.77;;;;;;;;;;5093483;28;20448;-82
2022/08/27 05:50:06;;;;;;;21.60;20.00;;;;;;;;;;5093218;28;20417;-83
2022/08/27 05:52:34;;;;;;;21.37;19.77;;;;;;;;;;5093073;28;20414;-83
2022/08/27 05:55:01;;;;;;;20.27;19.00;;;;;;;;;;5093140;28;20450;-84
2022/08/27 05:57:29;;;;;;;20.87;19.40;;;;;;;;;;5093745;28;20451;-84
2022/08/27 06:02:42;;;;;;;20.90;19.50;;;;;;;;;;5093472;28;20472;-85
2022/08/27 06:05:10;;;;;;;21.10;19.70;;;;;;;;;;5093001;28;20516;-83
2022/08/27 06:07:37;;;;;;;21.10;19.90;;;;;;;;;;5093547;28;20880;-83
2022/08/27 06:10:06;;;;;;;21.13;19.73;;;;;;;;;;5092956;28;20478;-82
2022/08/27 06:12:33;;;;;;;19.40;18.30;;;;;;;;;;5093145;28;20417;-82
2022/08/27 06:15:02;;;;;;;20.50;19.10;;;;;;;;;;5093357;28;20439;-83
2022/08/27 06:17:30;;;;;;;20.20;18.70;;;;;;;;;;5093122;28;20435;-82
2022/08/27 06:19:58;;;;;;;20.80;19.30;;;;;;;;;;5093167;28;20413;-82
2022/08/27 06:22:25;;;;;;;21.30;19.53;;;;;;;;;;5093095;28;20439;-83
2022/08/27 06:24:52;;;;;;;20.10;18.60;;;;;;;;;;5092885;28;20474;-83
2022/08/27 06:27:20;;;;;;;20.37;18.97;;;;;;;;;;5093112;28;20444;-83
2022/08/27 06:29:47;;;;;;;20.80;19.50;;;;;;;;;;5093389;28;20446;-83
2022/08/27 06:32:16;;;;;;;22.10;20.50;;;;;;;;;;5093154;28;20437;-82
2022/08/27 06:34:43;;;;;;;21.53;19.87;;;;;;;;;;5092994;28;20873;-84
2022/08/27 06:37:11;;;;;;;19.57;18.57;;;;;;;;;;5092940;28;20410;-83
2022/08/27 06:39:39;;;;;;;21.00;19.10;;;;;;;;;;5092908;28;20451;-83
2022/08/27 06:42:07;;;;;;;20.47;19.17;;;;;;;;;;5095334;28;20433;-83
2022/08/27 06:44:34;;;;;;;20.40;19.20;;;;;;;;;;5096520;28;20457;-83
2022/08/27 06:47:03;;;;;;;20.77;19.43;;;;;;;;;;5096349;28;20401;-83
2022/08/27 06:49:33;;;;;;;21.43;19.73;;;;;;;;;;5096575;28;20893;-83
2022/08/27 06:52:00;;;;;;;21.03;19.63;;;;;;;;;;5096116;28;20470;-83
2022/08/27 06:54:28;;;;;;;20.80;19.40;;;;;;;;;;5096384;28;20475;-83
2022/08/27 06:56:58;;;;;;;23.07;21.30;;;;;;;;;;5096105;28;20413;-84
2022/08/27 06:59:26;;;;;;;21.60;19.90;;;;;;;;;;5096338;28;20418;-84
2022/08/27 07:01:54;;;;;;;21.20;19.40;;;;;;;;;;5096162;28;20758;-82
2022/08/27 07:04:22;;;;;;;20.80;19.23;;;;;;;;;;5095699;28;20509;-82
2022/08/27 07:06:51;;;;;;;21.70;20.27;;;;;;;;;;5096424;28;20418;-84
2022/08/27 07:09:20;;;;;;;21.53;19.93;;;;;;;;;;5096556;28;20804;-84
2022/08/27 07:11:48;;;;;;;20.70;19.30;;;;;;;;;;5096169;28;20914;-84
2022/08/27 07:14:15;;;;;;;20.97;19.57;;;;;;;;;;5096004;28;20451;-84
2022/08/27 07:16:43;;;;;;;20.87;19.30;;;;;;;;;;5096138;28;20501;-85
2022/08/27 07:19:10;;;;;;;21.63;19.90;;;;;;;;;;5096356;28;20816;-84
2022/08/27 07:21:39;;;;;;;20.13;18.80;;;;;;;;;;5096318;28;20809;-86
2022/08/27 07:24:08;;;;;;;19.97;18.67;;;;;;;;;;5095600;28;20482;-82
2022/08/27 07:26:37;;;;;;;21.50;20.10;;;;;;;;;;5096260;28;20420;-89
2022/08/27 07:29:05;;;;;;;21.50;19.73;;;;;;;;;;5096489;28;20417;-89
2022/08/27 07:31:34;;;;;;;20.40;19.00;;;;;;;;;;5096690;28;20517;-90
2022/08/27 07:34:01;;;;;;;20.80;19.47;;;;;;;;;;5096555;28;20416;-89
2022/08/27 07:36:29;;;;;;;21.07;19.67;;;;;;;;;;5096598;28;20776;-89
2022/08/27 07:38:56;;;;;;;21.63;20.40;;;;;;;;;;5096440;28;20913;-90
2022/08/27 07:41:25;;;;;;;22.57;20.63;;;;;;;;;;5096319;28;20451;-88
2022/08/27 07:46:37;;;;;;;21.33;19.92;;;;;;;;;;5096126;28;20422;-89
2022/08/27 07:49:05;;;;;;;21.93;20.57;;;;;;;;;;5094102;28;20198;-88
2022/08/27 07:51:36;;;;;;;21.87;20.27;;;;;;;;;;5094808;28;20455;-89
2022/08/27 07:54:03;;;;;;;23.40;21.43;;;;;;;;;;5096815;28;20985;-90
2022/08/27 07:56:32;;;;;;;21.73;20.30;;;;;;;;;;5097120;28;20421;-90
2022/08/27 07:58:59;;;;;;;20.97;19.23;;;;;;;;;;5094922;28;20437;-77
2022/08/27 08:01:27;;;;;;;20.73;19.27;;;;;;;;;;5094525;28;20411;-79
2022/08/27 08:03:55;;;;;;;22.80;20.80;;;;;;;;;;5093968;28;20894;-85
2022/08/27 08:06:23;;;;;;;23.07;21.37;;;;;;;;;;5095851;28;20853;-93
2022/08/27 08:08:50;;;;;;;22.07;20.43;;;;;;;;;;5095232;28;20444;-81
2022/08/27 08:11:19;;;;;;;22.50;20.30;;;;;;;;;;5095692;28;20426;-87
2022/08/27 08:13:48;;;;;;;21.73;20.03;;;;;;;;;;5095211;28;20493;-90
2022/08/27 08:16:15;;;;;;;20.90;19.50;;;;;;;;;;5096718;28;20425;-86
2022/08/27 08:18:43;;;;;;;21.73;20.33;;;;;;;;;;5094934;28;20440;-81
2022/08/27 08:21:12;;;;;;;21.00;19.80;;;;;;;;;;5094571;28;20503;-87
2022/08/27 08:23:39;;;;;;;22.60;20.77;;;;;;;;;;5094715;28;20440;-85
2022/08/27 08:26:07;;;;;;;22.53;20.63;;;;;;;;;;5094938;28;20944;-88
2022/08/27 08:28:35;;;;;;;22.50;20.90;;;;;;;;;;5094808;28;20423;-91
2022/08/27 08:31:04;;;;;;;21.40;19.90;;;;;;;;;;5094208;28;20897;-81
2022/08/27 08:33:33;;;;;;;20.80;19.40;;;;;;;;;;5094960;28;20419;-81
2022/08/27 08:36:03;;;;;;;22.47;20.80;;;;;;;;;;5082775;28;20439;-85
2022/08/27 08:38:31;;;;;;;22.40;20.70;;;;;;;;;;5094746;28;20440;-83
2022/08/27 08:40:59;;;;;;;20.93;19.33;;;;;;;;;;5093683;28;20405;-82
2022/08/27 08:43:50;;;;;;;22.37;20.80;;;;;;;;;;5093649;28;20822;-83
2022/08/27 08:46:22;;;;;;;20.50;19.30;;;;;;;;;;5093361;28;20458;-82
2022/08/27 08:48:51;;;;;;;22.30;20.80;;;;;;;;;;5093641;28;20414;-80
2022/08/27 08:51:21;;;;;;;20.37;19.27;;;;;;;;;;5093245;28;20911;-81
2022/08/27 08:53:51;;;;;;;21.00;19.70;;;;;;;;;;5093708;28;20494;-84
2022/08/27 08:56:22;;;;;;;21.23;20.03;;;;;;;;;;5092282;28;20408;-80
2022/08/27 08:58:52;;;;;;;21.23;19.80;;;;;;;;;;5093387;28;20412;-82
2022/08/27 09:01:21;;;;;;;20.83;19.53;;;;;;;;;;5093362;28;20411;-82
2022/08/27 09:03:52;;;;;;;21.53;19.90;;;;;;;;;;5092291;28;20970;-80
2022/08/27 09:06:24;;;;;;;20.47;19.13;;;;;;;;;;5093553;28;20994;-84
2022/08/27 09:08:52;;;;;;;21.10;19.70;;;;;;;;;;5093511;28;20903;-84
2022/08/27 09:11:22;;;;;;;21.30;20.00;;;;;;;;;;5093517;28;20880;-83
2022/08/27 09:13:50;;;;;;;22.33;20.97;;;;;;;;;;5093533;28;20498;-82
2022/08/27 09:16:18;;;;;;;21.50;20.20;;;;;;;;;;5093276;28;20427;-82
2022/08/27 09:18:48;;;;;;;21.47;20.03;;;;;;;;;;5092924;28;20915;-82
2022/08/27 09:21:21;;;;;;;21.50;20.00;;;;;;;;;;5092679;28;20905;-82
2022/08/27 09:23:54;;;;;;;20.77;19.47;;;;;;;;;;5093294;28;20493;-82
2022/08/27 09:26:23;;;;;;;21.17;20.07;;;;;;;;;;5092500;28;20465;-83
2022/08/27 09:31:42;;;;;;;21.90;20.47;;;;;;;;;;5093128;28;20548;-83
2022/08/27 09:34:11;;;;;;;21.77;20.57;;;;;;;;;;5093120;28;20443;-82
2022/08/27 09:36:49;;;;;;;20.70;19.50;;;;;;;;;;5092861;28;20467;-83
2022/08/27 09:39:16;;;;;;;21.13;19.77;;;;;;;;;;5092984;28;20511;-80
2022/08/27 09:41:46;;;;;;;21.37;20.10;;;;;;;;;;5093861;28;20411;-92
2022/08/27 09:44:15;;;;;;;21.77;20.37;;;;;;;;;;5094477;28;20436;-89
2022/08/27 09:46:51;;;;;;;20.57;19.33;;;;;;;;;;5094272;28;20468;-89
2022/08/27 09:49:20;;;;;;;20.93;19.77;;;;;;;;;;5094205;28;20407;-88
2022/08/27 09:51:48;;;;;;;21.57;20.37;;;;;;;;;;5093455;28;20430;-81
2022/08/27 09:54:25;;;;;;;20.93;19.73;;;;;;;;;;5092703;28;20464;-80
2022/08/27 09:56:52;;;;;;;21.90;20.60;;;;;;;;;;5092217;28;21019;-80
2022/08/27 09:59:22;;;;;;;21.60;20.20;;;;;;;;;;5091257;28;20902;-80
2022/08/27 10:01:53;;;;;;;22.10;20.60;;;;;;;;;;5092735;28;20531;-81
2022/08/27 10:04:27;;;;;;;21.93;20.60;;;;;;;;;;5092492;28;20450;-80
2022/08/27 10:06:54;;;;;;;20.83;19.40;;;;;;;;;;5092618;28;20443;-80
2022/08/27 10:09:27;;;;;;;22.13;20.53;;;;;;;;;;5092270;28;20432;-81
2022/08/27 10:12:00;;;;;;;22.13;20.60;;;;;;;;;;5092232;28;20948;-80
2022/08/27 10:14:32;;;;;;;22.10;20.70;;;;;;;;;;5092225;28;20925;-81
2022/08/27 10:17:03;;;;;;;22.17;20.70;;;;;;;;;;5096382;28;20431;-82
2022/08/27 10:19:45;;;;;;;21.53;20.23;;;;;;;;;;5096034;28;20936;-82
2022/08/27 10:22:15;;;;;;;22.50;20.80;;;;;;;;;;5096067;28;20443;-80
2022/08/27 10:24:47;;;;;;;23.13;21.40;;;;;;;;;;5095865;28;20414;-81
2022/08/27 10:27:21;;;;;;;22.33;20.27;;;;;;;;;;5096143;28;20812;-80
2022/08/27 10:29:53;;;;;;;21.47;20.07;;;;;;;;;;5096466;28;20801;-82
2022/08/27 10:32:30;;;;;;;21.20;19.80;;;;;;;;;;5096158;28;20892;-82
2022/08/27 10:35:07;;;;;;;22.00;20.20;;;;;;;;;;5096013;28;20418;-82
2022/08/27 10:37:40;;;;;;;21.27;19.53;;;;;;;;;;5096363;28;20450;-82
2022/08/27 10:40:10;;;;;;;21.97;20.27;;;;;;;;;;5096516;28;20439;-82
2022/08/27 10:42:40;;;;;;;22.20;20.60;;;;;;;;;;5096071;28;20485;-82
2022/08/27 10:45:14;;;;;;;21.10;19.80;;;;;;;;;;5096206;27;20457;-82
2022/08/27 10:47:50;;;;;;;22.43;21.00;;;;;;;;;;5095615;28;20410;-82
2022/08/27 10:50:25;;;;;;;22.40;20.90;;;;;;;;;;5096178;28;20467;-82
2022/08/27 10:52:55;;;;;;;21.80;20.40;;;;;;;;;;5095852;28;20500;-82
2022/08/27 10:55:25;;;;;;;22.03;20.47;;;;;;;;;;5095306;28;20507;-82
2022/08/27 10:58:02;;;;;;;22.77;21.17;;;;;;;;;;5095673;28;20415;-83
2022/08/27 11:00:35;;;;;;;21.80;20.30;;;;;;;;;;5095399;28;20475;-82
2022/08/27 11:03:06;;;;;;;21.20;19.70;;;;;;;;;;5095717;28;20443;-82
2022/08/27 11:05:38;;;;;;;22.00;20.40;;;;;;;;;;5095522;28;20453;-82
2022/08/27 11:08:08;;;;;;;22.57;20.87;;;;;;;;;;5095224;28;20775;-89
2022/08/27 11:10:37;;;;;;;22.17;20.20;;;;;;;;;;5095444;28;20411;-82
2022/08/27 11:13:06;;;;;;;21.97;20.30;;;;;;;;;;5095532;28;20506;-81
2022/08/27 11:15:35;;;;;;;23.00;21.23;;;;;;;;;;5095155;28;20436;-82
2022/08/27 11:18:05;;;;;;;22.97;21.00;;;;;;;;;;5095486;28;20437;-83
2022/08/27 11:20:35;;;;;;;23.27;21.47;;;;;;;;;;5095085;28;20936;-82
2022/08/27 11:23:07;;;;;;;22.10;20.63;;;;;;;;;;5094984;28;20983;-82
2022/08/27 11:25:39;;;;;;;24.10;22.43;;;;;;;;;;5094854;28;20479;-86
2022/08/27 11:28:08;;;;;;;22.70;21.00;;;;;;;;;;5094916;28;20451;-87
2022/08/27 11:30:40;;;;;;;22.00;20.60;;;;;;;;;;5096442;28;20410;-89
2022/08/27 11:33:10;;;;;;;22.70;21.03;;;;;;;;;;5096329;28;20415;-84
2022/08/27 11:35:43;;;;;;;22.90;21.40;;;;;;;;;;5096009;28;20453;-88
2022/08/27 11:38:26;;;;;;;23.47;21.63;;;;;;;;;;5095898;28;20426;-85
2022/08/27 11:41:05;;;;;;;21.97;20.60;;;;;;;;;;5095581;28;20490;-85
2022/08/27 11:43:35;;;;;;;21.83;20.10;;;;;;;;;;5095786;28;20825;-86
2022/08/27 11:46:03;;;;;;;23.27;21.27;;;;;;;;;;5095770;28;20490;-86
2022/08/27 11:48:32;;;;;;;22.80;21.37;;;;;;;;;;5094960;28;20417;-83
2022/08/27 11:51:01;;;;;;;23.13;21.43;;;;;;;;;;5095343;28;20439;-85
2022/08/27 11:53:31;;;;;;;22.57;20.87;;;;;;;;;;5095425;27;20826;-86
2022/08/27 11:55:59;;;;;;;22.97;21.47;;;;;;;;;;5095303;28;20764;-86
2022/08/27 11:58:29;;;;;;;22.47;21.07;;;;;;;;;;5095495;28;20808;-85
2022/08/27 12:00:56;;;;;;;23.23;21.53;;;;;;;;;;5094848;28;20923;-85
2022/08/27 12:03:26;;;;;;;22.13;20.40;;;;;;;;;;5095192;28;20426;-86
2022/08/27 12:06:08;;;;;;;21.90;20.50;;;;;;;;;;5094870;28;20479;-85
2022/08/27 12:08:37;;;;;;;22.13;20.73;;;;;;;;;;5093918;28;20483;-85
2022/08/27 12:11:12;;;;;;;22.20;20.60;;;;;;;;;;5095033;28;20446;-85
2022/08/27 12:13:41;;;;;;;23.77;21.80;;;;;;;;;;5095024;28;20441;-86
2022/08/27 12:16:15;;;;;;;23.97;22.00;;;;;;;;;;5094995;28;20427;-86
2022/08/27 12:18:50;;;;;;;23.67;21.87;;;;;;;;;;5094917;28;20790;-86
2022/08/27 12:21:23;;;;;;;23.80;22.10;;;;;;;;;;5095071;28;20481;-86
2022/08/27 12:23:57;;;;;;;23.50;21.80;;;;;;;;;;5095139;28;20444;-85
2022/08/27 12:26:31;;;;;;;22.47;21.07;;;;;;;;;;5094831;28;20903;-86
2022/08/27 12:29:13;;;;;;;23.00;21.50;;;;;;;;;;5095113;28;20513;-86
2022/08/27 12:31:42;;;;;;;21.30;19.80;;;;;;;;;;5094577;28;20431;-86
2022/08/27 12:34:14;;;;;;;22.40;20.80;;;;;;;;;;5095058;28;20436;-86
2022/08/27 12:36:42;;;;;;;22.90;21.37;;;;;;;;;;5094718;28;20403;-86
2022/08/27 12:39:15;;;;;;;23.67;22.10;;;;;;;;;;5094527;28;20418;-85
2022/08/27 12:41:46;;;;;;;23.13;21.53;;;;;;;;;;5094689;28;20809;-85
2022/08/27 12:44:15;;;;;;;23.97;22.23;;;;;;;;;;5094457;28;20415;-85
2022/08/27 12:46:47;;;;;;;21.90;20.50;;;;;;;;;;5094005;28;20467;-85
2022/08/27 12:49:17;;;;;;;23.67;21.67;;;;;;;;;;5094739;28;20451;-86
2022/08/27 12:51:45;;;;;;;23.40;22.00;;;;;;;;;;5094767;28;20419;-87
2022/08/27 12:54:25;;;;;;;25.27;23.20;;;;;;;;;;5094681;28;20461;-87
2022/08/27 12:56:59;;;;;;;24.07;22.00;;;;;;;;;;5094130;28;20424;-85
2022/08/27 12:59:42;;;;;;;22.70;21.40;;;;;;;;;;5094587;28;20473;-85
2022/08/27 13:02:16;;;;;;;23.43;21.70;;;;;;;;;;5093825;28;20432;-91
2022/08/27 13:04:45;;;;;;;22.87;21.20;;;;;;;;;;5094313;28;20458;-83
2022/08/27 13:07:13;;;;;;;24.17;22.03;;;;;;;;;;5093646;28;20968;-87
2022/08/27 13:09:43;;;;;;;24.37;22.60;;;;;;;;;;5094860;28;20441;-87
2022/08/27 13:12:16;;;;;;;24.87;22.80;;;;;;;;;;5093847;28;20752;-82
2022/08/27 13:14:43;;;;;;;23.37;21.30;;;;;;;;;;5093357;28;20468;-83
2022/08/27 13:17:12;;;;;;;22.40;20.90;;;;;;;;;;5093125;28;20794;-83
2022/08/27 13:19:48;;;;;;;23.20;21.57;;;;;;;;;;5093139;28;20906;-82
2022/08/27 13:22:21;;;;;;;22.43;21.03;;;;;;;;;;5092832;28;20856;-81
2022/08/27 13:24:52;;;;;;;23.53;22.13;;;;;;;;;;5093009;28;20438;-82
2022/08/27 13:27:24;;;;;;;23.77;22.23;;;;;;;;;;5092714;28;20491;-82
2022/08/27 13:29:51;;;;;;;23.37;21.80;;;;;;;;;;5092626;28;20515;-82
2022/08/27 13:32:19;;;;;;;23.30;21.90;;;;;;;;;;5092982;28;20440;-81
2022/08/27 13:34:47;;;;;;;24.60;22.43;;;;;;;;;;5092852;28;20449;-81
2022/08/27 13:37:23;;;;;;;22.60;21.20;;;;;;;;;;5092529;28;20423;-81
2022/08/27 13:39:54;;;;;;;22.80;21.10;;;;;;;;;;5092982;28;20511;-83
2022/08/27 13:42:23;;;;;;;22.57;21.10;;;;;;;;;;5094001;28;20439;-92
2022/08/27 13:44:53;;;;;;;22.27;20.87;;;;;;;;;;5095814;28;20444;-91
2022/08/27 13:47:22;;;;;;;23.17;21.53;;;;;;;;;;5095849;28;20472;-91
2022/08/27 13:49:49;;;;;;;22.73;21.30;;;;;;;;;;5096100;28;20440;-91
2022/08/27 13:52:24;;;;;;;23.23;21.73;;;;;;;;;;5099579;28;20444;-90
2022/08/27 13:54:51;;;;;;;22.77;21.37;;;;;;;;;;5099002;28;20469;-92
2022/08/27 13:57:26;;;;;;;23.03;21.33;;;;;;;;;;5098985;28;20460;-91
2022/08/27 13:59:53;;;;;;;22.33;20.60;;;;;;;;;;5098782;28;20407;-89
2022/08/27 14:02:24;;;;;;;22.47;20.97;;;;;;;;;;5098735;28;20411;-91
2022/08/27 14:05:03;;;;;;;22.80;20.97;;;;;;;;;;5098179;28;20498;-91
2022/08/27 14:07:33;;;;;;;23.23;21.57;;;;;;;;;;5098355;28;20474;-91
2022/08/27 14:10:03;;;;;;;23.53;21.83;;;;;;;;;;5098045;28;20415;-91
2022/08/27 14:12:34;;;;;;;23.27;21.87;;;;;;;;;;5096921;28;20822;-92
2022/08/27 14:15:13;;;;;;;22.43;21.00;;;;;;;;;;5098119;28;20544;-92
2022/08/27 14:17:41;;;;;;;23.63;22.20;;;;;;;;;;5097991;28;20420;-91
2022/08/27 14:20:08;;;;;;;22.50;21.10;;;;;;;;;;5098278;28;20478;-91
2022/08/27 14:22:36;;;;;;;22.77;21.17;;;;;;;;;;5098027;28;20422;-91
2022/08/27 14:25:04;;;;;;;22.33;20.93;;;;;;;;;;5097724;28;20411;-88
2022/08/27 14:27:33;;;;;;;23.57;22.20;;;;;;;;;;5098014;28;20919;-90
2022/08/27 14:30:00;;;;;;;23.27;21.87;;;;;;;;;;5097804;28;20498;-89
2022/08/27 14:32:27;;;;;;;22.50;21.10;;;;;;;;;;5097886;28;20441;-93
2022/08/27 14:34:55;;;;;;;22.70;21.27;;;;;;;;;;5097788;28;20422;-93
2022/08/27 14:37:22;;;;;;;22.70;20.77;;;;;;;;;;5097935;28;20421;-92
2022/08/27 14:39:49;;;;;;;22.77;21.43;;;;;;;;;;5097910;28;20431;-92